Saltar para o conteúdo principal

Sabugal, Martim Rei

ID 1210800 · 40.3392, -7.0369 mapa

Última leitura · 2026-05-09 18:00 (Europe/Lisbon)

Temperatura
10.5 °C
Humidade
92 %
Pressão
Precipitação
6.5 mm
Radiação
238 W/m²
Velocidade do vento
11.9 km/h
Direcção do vento
W · Oeste

Histórico de 24 horas

Hora (Europe/Lisbon) Temperatura Humidade Pressão Chuva Vento Direcção
2026-05-09 18:00 10.5 °C 92 % 6.5 mm 11.9 km/h W
2026-05-09 17:00 12.0 °C 89 % 0.0 mm 12.2 km/h SW
2026-05-09 16:00 11.6 °C 86 % 1.6 mm 16.9 km/h SW
2026-05-09 15:00 11.6 °C 92 % 3.5 mm 18.7 km/h SW
2026-05-09 14:00 10.2 °C 99 % 4.8 mm 11.5 km/h SE
2026-05-09 13:00 10.2 °C 97 % 7.2 mm 9.0 km/h S
2026-05-09 12:00 10.0 °C 95 % 0.8 mm 19.1 km/h S
2026-05-09 11:00 10.1 °C 93 % 1.5 mm 15.1 km/h SE
2026-05-09 10:00 8.9 °C 95 % 2.5 mm 15.1 km/h S
2026-05-09 09:00 8.9 °C 93 % 2.1 mm 22.7 km/h SE
2026-05-09 08:00 9.7 °C 80 % 0.2 mm 14.4 km/h SE
2026-05-09 07:00 9.0 °C 84 % 0.0 mm 15.1 km/h S
2026-05-09 06:00 8.8 °C 89 % 0.0 mm 13.0 km/h S
2026-05-09 05:00 9.6 °C 85 % 0.0 mm 16.6 km/h S
2026-05-09 04:00 9.5 °C 88 % 0.0 mm 14.0 km/h S
2026-05-09 03:00 10.0 °C 87 % 0.0 mm 13.0 km/h S
2026-05-09 02:00 10.5 °C 84 % 0.0 mm 11.5 km/h S
2026-05-09 01:00 11.0 °C 75 % 0.0 mm 13.3 km/h SW
2026-05-09 00:00 11.1 °C 68 % 0.1 mm 16.6 km/h S
2026-05-08 23:00 9.7 °C 75 % 0.0 mm 0.0 km/h
2026-05-08 22:00 9.7 °C 79 % 0.0 mm 0.0 km/h
2026-05-08 21:00 11.0 °C 75 % 0.0 mm 0.0 km/h
2026-05-08 20:00 13.2 °C 58 % 0.0 mm 0.0 km/h
2026-05-08 19:00 14.5 °C 53 % 0.0 mm 9.7 km/h S